Terminal Aerodrome Forecast
Issued by NWS Tampa Bay Area, FL

Home | Current Version | Previous Version | Text Only | Print | Product List | Glossary On
Versions: 1 2 3 4 5 6 7 8 9 10 11 12 13 14 15 16 17 18 19 20 21 22 23 24
000
FTUS42 KTBW 210300 AAA
TAFTPA
TAF AMD
KTPA 210300Z 2103/2124 VRB03KT P6SM FEW250
     FM211400 24006KT P6SM VCSH FEW035 SCT250
     FM211800 29007KT P6SM VCTS SCT035CB SCT200=

USA.gov is the U.S. government's official web portal to all federal, state and local government web resources and services.